Time;durP1;ratioP1;P1;durP2;ratioP2;P2;SDS_P1;SDS_P2;PMS_P1;PMS_P2;Temp;Humidity;BMP_temperature;BMP_pressure;BME280_temperature;BME280_humidity;BME280_pressure;Samples;Min_cycle;Max_cycle;Signal;HPM_P1;HPM_P2
2021/12/13 00:00:46;;;;;;;174.40;71.02;;;;;;;-6.85;85.75;98842.25;1777281;80;21052;-57
2021/12/13 00:03:31;;;;;;;163.30;64.42;;;;;;;-6.96;85.83;98840.67;1740417;82;20981;-57
2021/12/13 00:06:09;;;;;;;147.87;57.40;;;;;;;-7.01;85.91;98842.08;1710266;82;21382;-57
2021/12/13 00:08:38;;;;;;;143.82;62.38;;;;;;;-7.08;85.74;98841.87;1732989;81;21020;-59
2021/12/13 00:11:16;;;;;;;138.75;56.68;;;;;;;-7.13;85.87;98841.47;1737733;81;22109;-59
2021/12/13 00:13:50;;;;;;;131.90;55.05;;;;;;;-7.18;85.75;98837.97;1774015;80;20989;-57
2021/12/13 00:16:31;;;;;;;160.75;78.45;;;;;;;-7.26;85.76;98840.97;1711190;82;32449;-58
2021/12/13 00:19:01;;;;;;;151.53;61.15;;;;;;;-7.19;86.02;98839.41;1749611;82;20941;-57
2021/12/13 00:21:35;;;;;;;146.80;62.10;;;;;;;-7.21;86.72;98842.20;1764799;81;21044;-57
2021/12/13 00:24:10;;;;;;;146.80;57.70;;;;;;;-7.17;86.20;98846.21;1740613;82;20979;-57
2021/12/13 00:26:41;;;;;;;142.20;64.03;;;;;;;-7.21;86.21;98854.55;1765042;80;20949;-57
2021/12/13 00:29:12;;;;;;;137.90;61.18;;;;;;;-7.30;86.18;98857.56;1763083;80;21056;-57
2021/12/13 00:31:50;;;;;;;138.10;60.15;;;;;;;-7.25;86.67;98856.66;1764814;80;20970;-57
2021/12/13 00:34:40;;;;;;;140.90;59.55;;;;;;;-7.30;86.24;98853.61;1765740;80;20958;-57
2021/12/13 00:37:24;;;;;;;140.15;60.55;;;;;;;-7.23;86.37;98845.97;1765325;80;21299;-57
2021/12/13 00:39:59;;;;;;;159.70;59.38;;;;;;;-7.19;85.94;98849.45;1765041;80;21001;-57
2021/12/13 00:42:31;;;;;;;158.57;63.17;;;;;;;-7.25;85.58;98862.41;1775980;80;20965;-56
2021/12/13 00:45:01;;;;;;;131.37;55.55;;;;;;;-7.28;85.37;98846.39;1775110;79;21405;-57
2021/12/13 00:47:30;;;;;;;128.70;54.20;;;;;;;-7.26;85.76;98857.63;1733130;82;20997;-57
2021/12/13 00:50:01;;;;;;;;;;;;;;;-7.20;86.37;98855.70;1767539;80;21420;-57
2021/12/13 00:52:31;;;;;;;113.32;48.17;;;;;;;-7.08;86.88;98860.80;1740214;82;20190;-57
2021/12/13 00:54:58;;;;;;;129.42;54.88;;;;;;;-6.92;87.56;98864.91;1764786;81;21039;-57
2021/12/13 00:57:42;;;;;;;122.10;56.77;;;;;;;-6.77;87.83;98860.79;1765054;80;21045;-57
2021/12/13 01:00:14;;;;;;;129.95;52.70;;;;;;;-6.69;87.20;98862.19;1764827;79;20985;-58
2021/12/13 01:02:54;;;;;;;118.70;49.58;;;;;;;-6.71;86.66;98868.11;1764956;80;21002;-57
2021/12/13 01:06:18;;;;;;;122.00;50.75;;;;;;;-6.69;86.28;98867.95;1765076;80;20942;-57
2021/12/13 01:09:43;;;;;;;116.93;43.45;;;;;;;-6.78;85.77;98868.84;1765309;80;20981;-57
2021/12/13 01:12:14;;;;;;;126.45;51.68;;;;;;;-6.83;85.51;98857.45;1765154;80;21013;-57
2021/12/13 01:14:59;;;;;;;94.58;42.78;;;;;;;-7.10;84.87;98860.42;1744823;81;21016;-56
2021/12/13 01:17:55;;;;;;;102.20;43.87;;;;;;;-7.11;84.93;98851.36;1760498;80;20977;-56
2021/12/13 01:20:58;;;;;;;106.80;42.80;;;;;;;-7.11;85.63;98847.41;1763874;80;21472;-57
2021/12/13 01:23:17;;;;;;;94.13;39.53;;;;;;;-7.08;87.09;98857.67;1762020;80;20997;-57
2021/12/13 01:26:00;;;;;;;112.32;49.95;;;;;;;-7.03;86.26;98857.22;1764909;80;21000;-57
2021/12/13 01:28:26;;;;;;;114.03;53.15;;;;;;;-7.12;85.86;98860.25;1761897;80;20958;-57
2021/12/13 01:31:00;;;;;;;125.02;49.58;;;;;;;-7.17;85.59;98864.66;1764828;80;21333;-57
2021/12/13 01:33:33;;;;;;;118.82;48.58;;;;;;;-7.25;85.13;98861.09;1752784;81;21016;-57
2021/12/13 01:36:02;;;;;;;129.05;51.90;;;;;;;-7.32;85.14;98857.37;1750686;80;20954;-57
2021/12/13 01:38:37;;;;;;;123.65;47.43;;;;;;;-7.33;85.88;98867.09;1765258;81;21033;-57
2021/12/13 01:41:15;;;;;;;122.53;41.08;;;;;;;-7.29;85.45;98868.44;1765148;80;21013;-56
2021/12/13 01:43:50;;;;;;;117.13;51.88;;;;;;;-7.41;85.17;98857.28;1775126;79;21407;-56
2021/12/13 01:46:19;;;;;;;128.02;55.30;;;;;;;-7.60;84.82;98870.53;1776493;80;20977;-56
2021/12/13 01:48:46;;;;;;;103.75;44.77;;;;;;;-7.70;84.90;98862.63;1729386;82;21009;-56
2021/12/13 01:51:19;;;;;;;131.32;55.67;;;;;;;-7.64;85.08;98865.19;1740314;80;21017;-56
2021/12/13 01:53:57;;;;;;;114.52;49.53;;;;;;;-7.70;85.75;98857.86;1736281;82;21005;-56
2021/12/13 01:56:45;;;;;;;97.92;42.20;;;;;;;-7.61;86.40;98860.94;1764312;81;21582;-56
2021/12/13 02:01:59;;;;;;;86.22;36.03;;;;;;;-7.44;86.04;98864.13;1706539;82;21414;-57
2021/12/13 02:04:26;;;;;;;93.82;39.60;;;;;;;-7.41;85.96;98857.28;1738919;81;21037;-56
2021/12/13 02:07:02;;;;;;;75.22;33.33;;;;;;;-7.50;85.72;98860.78;1752791;81;20988;-57
2021/12/13 02:09:36;;;;;;;80.15;35.68;;;;;;;-7.44;85.49;98860.18;1739106;81;21029;-56
2021/12/13 02:12:11;;;;;;;91.37;37.60;;;;;;;-7.57;85.16;98862.81;1754215;81;20980;-56
2021/12/13 02:14:37;;;;;;;98.07;41.00;;;;;;;-7.67;85.31;98861.05;1725677;80;21027;-56
2021/12/13 02:17:11;;;;;;;90.20;42.55;;;;;;;-7.83;85.01;98849.47;1752676;81;21002;-56
2021/12/13 02:19:49;;;;;;;61.85;26.02;;;;;;;-7.97;85.18;98844.16;1712956;83;20986;-56
2021/12/13 02:22:33;;;;;;;96.55;40.70;;;;;;;-7.93;85.69;98841.61;1777654;80;21084;-56
2021/12/13 02:25:15;;;;;;;93.45;40.67;;;;;;;-7.88;86.90;98831.95;1748211;80;20972;-57
2021/12/13 02:27:47;;;;;;;92.92;41.73;;;;;;;-7.81;87.25;98832.55;1746671;82;21000;-57
2021/12/13 02:30:25;;;;;;;84.30;36.45;;;;;;;-7.71;87.15;98840.41;1748191;81;20969;-57
2021/12/13 02:32:52;;;;;;;64.50;28.75;;;;;;;-7.72;86.24;98829.05;1740795;82;21008;-57
2021/12/13 02:35:20;;;;;;;76.65;34.08;;;;;;;-7.64;85.73;98828.34;1765792;79;21361;-57
2021/12/13 02:37:47;;;;;;;59.70;24.05;;;;;;;-7.79;85.39;98827.97;1779423;80;20942;-57
2021/12/13 02:40:18;;;;;;;115.80;47.30;;;;;;;-7.79;85.39;98822.70;1748533;80;20961;-57
2021/12/13 02:42:45;;;;;;;92.40;37.33;;;;;;;-7.93;85.56;98823.19;1751464;81;20988;-57
2021/12/13 02:45:17;;;;;;;76.12;31.40;;;;;;;-7.89;85.14;98824.55;1764986;79;21447;-57
2021/12/13 02:47:56;;;;;;;80.83;35.35;;;;;;;-7.87;85.49;98822.59;1765221;80;21298;-57
2021/12/13 02:50:31;;;;;;;74.20;33.50;;;;;;;-7.99;85.62;98812.73;1762751;79;28262;-56
2021/12/13 02:52:59;;;;;;;84.87;36.98;;;;;;;-7.98;85.31;98820.14;1764834;80;20950;-56
2021/12/13 02:55:28;;;;;;;81.85;36.08;;;;;;;-8.01;85.34;98819.13;1766337;79;21449;-56
2021/12/13 02:57:59;;;;;;;85.40;36.53;;;;;;;-8.03;85.40;98814.01;1780568;80;20969;-56
2021/12/13 03:00:45;;;;;;;78.85;33.65;;;;;;;-7.99;85.70;98815.37;1776573;79;21369;-56
2021/12/13 03:03:16;;;;;;;73.57;27.37;;;;;;;-7.90;85.38;98827.33;1741067;82;20963;-56
2021/12/13 03:05:46;;;;;;;59.70;28.32;;;;;;;-7.84;85.26;98824.95;1745726;81;21440;-56
2021/12/13 03:08:18;;;;;;;63.15;27.82;;;;;;;-7.87;85.02;98822.59;1771190;80;20997;-56
2021/12/13 03:10:50;;;;;;;60.63;28.15;;;;;;;-7.90;85.04;98819.43;1777815;80;21436;-56
2021/12/13 03:13:18;;;;;;;64.05;29.80;;;;;;;-7.92;85.09;98810.86;1750759;81;21933;-56
2021/12/13 03:16:02;;;;;;;63.07;27.97;;;;;;;-7.89;86.19;98819.28;1745559;81;20984;-56
2021/12/13 03:18:44;;;;;;;73.97;30.10;;;;;;;-7.78;87.37;98815.15;1738216;82;21686;-56
2021/12/13 03:21:43;;;;;;;79.80;31.68;;;;;;;-7.78;85.38;98815.15;1770921;80;21440;-56
2021/12/13 03:24:36;;;;;;;70.90;31.80;;;;;;;-7.84;84.42;98823.64;1678680;84;21014;-56
2021/12/13 03:27:14;;;;;;;74.25;30.77;;;;;;;-7.84;84.03;98821.50;1675025;85;21456;-56
2021/12/13 03:30:08;;;;;;;65.95;29.18;;;;;;;-7.82;84.19;98832.21;1705983;82;20981;-56
2021/12/13 03:32:45;;;;;;;55.88;26.93;;;;;;;-7.82;84.25;98833.53;1740312;82;21031;-56
2021/12/13 03:35:18;;;;;;;68.33;28.45;;;;;;;-7.88;84.11;98839.36;1775056;80;20970;-56
2021/12/13 03:37:45;;;;;;;66.95;28.65;;;;;;;-7.96;84.18;98844.02;1721690;81;21036;-59
2021/12/13 03:40:16;;;;;;;79.17;36.03;;;;;;;-8.04;84.37;98839.94;1765041;81;21324;-59
2021/12/13 03:42:51;;;;;;;67.82;28.83;;;;;;;-8.02;85.41;98843.77;1765023;80;20997;-56
2021/12/13 03:45:25;;;;;;;66.92;27.60;;;;;;;-7.98;85.03;98845.13;1763583;81;20978;-58
2021/12/13 03:47:56;;;;;;;67.22;29.80;;;;;;;-7.99;85.29;98848.73;1768834;80;20962;-58
2021/12/13 03:50:34;;;;;;;55.28;24.87;;;;;;;-7.93;85.19;98848.67;1780056;79;21020;-58
2021/12/13 03:53:07;;;;;;;58.23;27.62;;;;;;;-7.82;85.79;98858.53;1766886;80;21511;-57
2021/12/13 03:55:34;;;;;;;62.27;27.13;;;;;;;-7.74;85.57;98848.60;1766869;80;21056;-57
2021/12/13 03:58:05;;;;;;;67.42;32.30;;;;;;;-7.69;85.15;98848.53;1766632;80;20965;-56
2021/12/13 04:00:37;;;;;;;72.15;30.77;;;;;;;-7.74;84.02;98847.29;1749470;80;20961;-57
2021/12/13 04:03:08;;;;;;;57.45;25.17;;;;;;;-7.84;82.91;98854.39;1741883;82;21002;-57
2021/12/13 04:05:35;;;;;;;70.35;31.25;;;;;;;-8.02;82.25;98854.30;1705498;80;21701;-56
2021/12/13 04:08:05;;;;;;;68.72;30.12;;;;;;;-8.12;82.49;98855.60;1756553;81;21381;-57
2021/12/13 04:10:39;;;;;;;61.70;25.88;;;;;;;-8.13;82.97;98855.27;1739757;82;20965;-57
2021/12/13 04:13:12;;;;;;;71.62;27.48;;;;;;;-8.12;82.95;98850.83;1739509;82;21012;-56
2021/12/13 04:16:06;;;;;;;63.87;27.42;;;;;;;-8.19;82.64;98856.34;1735608;82;20974;-56
2021/12/13 04:21:15;;;;;;;66.20;31.93;;;;;;;-8.24;83.30;98856.73;1740666;82;20942;-59
2021/12/13 04:23:52;;;;;;;59.85;23.52;;;;;;;-8.36;83.30;98869.25;1764936;80;21064;-58
2021/12/13 04:26:19;;;;;;;65.42;25.45;;;;;;;-8.39;83.58;98875.25;1740584;82;21398;-57
2021/12/13 04:28:50;;;;;;;51.10;23.20;;;;;;;-8.42;83.67;98877.69;1765082;81;21441;-58
2021/12/13 04:31:20;;;;;;;56.37;25.05;;;;;;;-8.41;83.85;98871.45;1754209;81;21418;-58
2021/12/13 04:33:51;;;;;;;76.07;31.48;;;;;;;-8.40;84.25;98873.11;1738142;82;20961;-57
2021/12/13 04:36:38;;;;;;;112.50;44.20;;;;;;;-8.30;85.81;98880.95;1747851;81;20976;-58
2021/12/13 04:39:11;;;;;;;120.13;51.75;;;;;;;-8.16;85.74;98871.82;1741946;81;21044;-58
2021/12/13 04:41:45;;;;;;;74.62;30.15;;;;;;;-8.09;85.51;98870.30;1738351;82;21005;-57
2021/12/13 04:44:34;;;;;;;111.30;51.73;;;;;;;-7.99;85.04;98877.68;1755600;81;21380;-58
2021/12/13 04:47:14;;;;;;;72.42;32.93;;;;;;;-7.93;85.40;98872.34;1720988;82;21024;-57
2021/12/13 04:49:49;;;;;;;78.95;36.17;;;;;;;-7.80;86.30;98868.91;1764987;80;21017;-57
2021/12/13 04:52:19;;;;;;;70.25;27.77;;;;;;;-7.67;85.64;98868.13;1722764;81;22146;-57
2021/12/13 04:54:51;;;;;;;75.50;36.10;;;;;;;-7.57;85.84;98870.72;1765010;80;21029;-57
2021/12/13 04:57:18;;;;;;;69.55;33.63;;;;;;;-7.54;85.11;98860.71;1765122;80;21023;-57
2021/12/13 04:59:56;;;;;;;79.27;35.68;;;;;;;-7.58;83.62;98867.74;1749379;82;21004;-57
2021/12/13 05:02:23;;;;;;;70.20;33.13;;;;;;;-7.67;83.40;98859.73;1777846;80;20992;-56
2021/12/13 05:04:59;;;;;;;65.22;29.65;;;;;;;-7.74;83.60;98857.81;1777867;80;21550;-57
2021/12/13 05:07:26;;;;;;;49.55;26.15;;;;;;;-7.78;83.05;98860.38;1777358;80;20956;-57
2021/12/13 05:09:53;;;;;;;85.32;38.98;;;;;;;-7.92;83.27;98860.84;1777789;80;21327;-57
2021/12/13 05:12:25;;;;;;;73.62;34.48;;;;;;;-8.03;83.59;98860.50;1777587;79;21043;-56
2021/12/13 05:14:53;;;;;;;79.75;35.60;;;;;;;-8.09;83.79;98859.28;1760124;79;21403;-57
2021/12/13 05:17:34;;;;;;;137.35;57.55;;;;;;;-8.13;84.63;98864.47;1756009;80;21049;-56
2021/12/13 05:20:17;;;;;;;119.97;52.62;;;;;;;-8.16;83.93;98859.98;1776207;80;20969;-57
2021/12/13 05:22:58;;;;;;;33.25;16.95;;;;;;;-8.20;84.32;98853.33;1739931;82;21460;-57
2021/12/13 05:25:44;;;;;;;95.72;41.95;;;;;;;-8.04;84.77;98853.09;1736045;81;21436;-57
2021/12/13 05:28:28;;;;;;;83.97;39.23;;;;;;;-8.04;85.16;98857.04;1740436;82;20977;-56
2021/12/13 05:30:59;;;;;;;80.35;32.80;;;;;;;-7.96;85.44;98857.16;1765480;81;21415;-57
2021/12/13 05:33:31;;;;;;;84.55;42.10;;;;;;;-7.91;85.04;98865.96;1739230;82;20958;-57
2021/12/13 05:36:02;;;;;;;85.45;38.50;;;;;;;-7.92;84.25;98864.30;1768765;80;22077;-57
2021/12/13 05:38:33;;;;;;;119.05;61.00;;;;;;;-7.95;84.48;98860.63;1758581;80;20968;-57
2021/12/13 05:41:05;;;;;;;102.20;51.55;;;;;;;-7.89;84.96;98867.95;1745442;82;21035;-57
2021/12/13 05:43:39;;;;;;;96.57;48.30;;;;;;;-7.82;84.95;98868.22;1745317;81;21005;-57
2021/12/13 05:46:11;;;;;;;98.90;46.28;;;;;;;-7.84;85.19;98874.95;1736910;80;20961;-56
2021/12/13 05:48:46;;;;;;;88.12;42.08;;;;;;;-7.83;84.75;98872.66;1736641;82;21961;-57
2021/12/13 05:51:32;;;;;;;141.85;65.80;;;;;;;-7.86;83.96;98872.95;1719628;82;20941;-56
2021/12/13 05:54:07;;;;;;;60.05;24.32;;;;;;;-8.11;84.25;98874.38;1772905;80;21055;-57
2021/12/13 05:56:40;;;;;;;87.60;34.53;;;;;;;-8.06;84.89;98884.47;1760694;80;20956;-57
2021/12/13 05:59:20;;;;;;;102.80;42.88;;;;;;;-8.07;85.06;98883.64;1776936;79;20984;-57
2021/12/13 06:02:02;;;;;;;201.22;70.15;;;;;;;-8.13;84.86;98886.82;1771454;80;21110;-59
2021/12/13 06:04:44;;;;;;;217.30;76.42;;;;;;;-8.06;84.86;98885.30;1744286;81;21000;-57
2021/12/13 06:07:28;;;;;;;131.18;51.45;;;;;;;-8.15;84.95;98884.83;1763688;79;20965;-59
2021/12/13 06:10:15;;;;;;;99.80;42.45;;;;;;;-8.14;85.69;98889.11;1708961;81;20984;-59
2021/12/13 06:12:50;;;;;;;157.35;55.38;;;;;;;-8.02;85.77;98898.53;1761838;80;21032;-57
2021/12/13 06:15:23;;;;;;;180.52;62.40;;;;;;;-7.98;85.07;98899.06;1758686;80;21019;-57
2021/12/13 06:18:20;;;;;;;124.20;48.58;;;;;;;-7.97;84.41;98905.50;1736169;82;21056;-57
2021/12/13 06:20:58;;;;;;;122.15;47.10;;;;;;;-7.99;84.23;98903.50;1742155;81;21071;-57
2021/12/13 06:23:30;;;;;;;147.00;55.63;;;;;;;-8.03;83.56;98907.39;1747389;81;21242;-57
2021/12/13 06:26:02;;;;;;;300.98;126.42;;;;;;;-8.19;83.35;98910.25;1758409;80;20973;-56
2021/12/13 06:28:32;;;;;;;232.30;87.75;;;;;;;-8.21;83.42;98912.99;1777687;80;22258;-58
2021/12/13 06:31:07;;;;;;;132.87;54.55;;;;;;;-8.28;82.86;98915.38;1769432;80;20958;-56
2021/12/13 06:33:54;;;;;;;135.72;54.88;;;;;;;-8.40;83.11;98915.17;1746851;80;21000;-57
2021/12/13 06:36:36;;;;;;;220.22;88.72;;;;;;;-8.34;83.26;98919.03;1753957;81;20986;-57
2021/12/13 06:39:12;;;;;;;177.80;70.97;;;;;;;-8.42;83.02;98917.60;1760560;80;21041;-56
2021/12/13 06:41:48;;;;;;;143.02;53.02;;;;;;;-8.48;82.88;98917.66;1758967;80;21478;-57
2021/12/13 06:44:30;;;;;;;77.30;31.12;;;;;;;-8.49;82.81;98919.94;1748553;80;21476;-57
2021/12/13 06:47:01;;;;;;;89.58;33.80;;;;;;;-8.47;83.09;98919.31;1760248;81;21013;-57
2021/12/13 06:49:43;;;;;;;93.10;36.63;;;;;;;-8.51;83.15;98926.31;1740728;82;20973;-57
2021/12/13 06:52:15;;;;;;;118.93;44.42;;;;;;;-8.50;83.56;98931.43;1758391;80;21033;-57
2021/12/13 06:54:57;;;;;;;101.85;42.23;;;;;;;-8.56;83.49;98928.02;1736380;82;21938;-57
2021/12/13 06:57:40;;;;;;;126.20;50.00;;;;;;;-8.54;84.51;98924.31;1703641;82;21075;-57
2021/12/13 07:00:27;;;;;;;101.15;40.40;;;;;;;-8.42;84.13;98926.80;1728971;82;23026;-57
2021/12/13 07:03:07;;;;;;;269.57;105.90;;;;;;;-8.40;84.38;98929.63;1724517;81;21040;-58
2021/12/13 07:05:47;;;;;;;165.10;58.00;;;;;;;-8.31;85.16;98940.60;1765986;80;21040;-58
2021/12/13 07:08:34;;;;;;;73.52;34.78;;;;;;;-8.22;84.25;98944.20;1754437;80;21508;-57
2021/12/13 07:11:12;;;;;;;160.35;68.42;;;;;;;-8.21;83.83;98948.98;1724596;81;21055;-57
2021/12/13 07:14:04;;;;;;;230.15;98.52;;;;;;;-8.25;83.38;98953.21;1734049;81;21487;-57
2021/12/13 07:16:35;;;;;;;142.15;64.75;;;;;;;-8.21;83.54;98956.87;1725320;82;21565;-57
2021/12/13 07:19:26;;;;;;;156.43;82.57;;;;;;;-8.13;84.06;98959.16;1737323;80;21456;-57
2021/12/13 07:22:00;;;;;;;116.95;50.38;;;;;;;-8.06;83.90;98960.27;1732337;81;21520;-57
2021/12/13 07:24:42;;;;;;;148.38;62.55;;;;;;;-7.95;83.75;98961.91;1728733;82;22167;-56
2021/12/13 07:27:23;;;;;;;130.52;57.90;;;;;;;-8.03;83.26;98967.04;1735685;81;21761;-57
2021/12/13 07:30:00;;;;;;;118.45;52.25;;;;;;;-8.02;82.96;98971.36;1717650;80;21053;-56
2021/12/13 07:32:36;;;;;;;149.65;59.70;;;;;;;-7.96;83.07;98966.84;1729267;80;21052;-56
2021/12/13 07:35:37;;;;;;;179.45;73.02;;;;;;;-7.94;82.70;98970.67;1733403;81;21352;-56
2021/12/13 07:38:12;;;;;;;130.05;61.73;;;;;;;-7.91;82.75;98976.47;1729408;80;21072;-56
2021/12/13 07:40:53;;;;;;;203.18;90.45;;;;;;;-7.84;82.71;98976.27;1737577;80;21107;-56
2021/12/13 07:43:30;;;;;;;214.25;114.47;;;;;;;-7.80;82.43;98986.84;1752413;80;21016;-57
2021/12/13 07:46:20;;;;;;;176.95;81.78;;;;;;;-7.70;82.41;98986.83;1748147;80;21119;-57
2021/12/13 07:48:55;;;;;;;175.00;79.07;;;;;;;-7.66;82.17;98996.13;1730360;81;21164;-57
2021/12/13 07:51:49;;;;;;;132.27;56.37;;;;;;;-7.62;82.25;98988.27;1732915;81;22610;-57
2021/12/13 07:54:18;;;;;;;155.70;67.45;;;;;;;-7.53;82.64;98991.38;1732996;81;21013;-57
2021/12/13 07:56:57;;;;;;;101.87;47.48;;;;;;;-7.37;83.28;98991.28;1771969;79;20982;-57
2021/12/13 07:59:34;;;;;;;107.45;50.38;;;;;;;-7.25;83.71;98999.38;1770435;79;21073;-56
2021/12/13 08:02:31;;;;;;;107.60;50.50;;;;;;;-7.14;83.14;99000.52;1741671;82;21144;-57
2021/12/13 08:05:12;;;;;;;111.75;49.90;;;;;;;-7.00;83.49;98996.59;1744526;81;21037;-57
2021/12/13 08:07:49;;;;;;;146.57;60.12;;;;;;;-6.90;83.18;99001.33;1728556;81;21063;-57
2021/12/13 08:10:28;;;;;;;133.52;50.75;;;;;;;-6.79;83.18;99002.45;1731731;81;21064;-57
2021/12/13 08:13:06;;;;;;;151.60;63.58;;;;;;;-6.65;83.41;98998.52;1701368;82;21487;-56
2021/12/13 08:15:40;;;;;;;234.05;94.55;;;;;;;-6.65;83.12;98996.70;1726246;81;21060;-57
2021/12/13 08:18:39;;;;;;;99.15;44.88;;;;;;;-6.66;83.75;98992.91;1726554;82;21650;-57
2021/12/13 08:21:10;;;;;;;234.20;108.47;;;;;;;-6.51;83.83;98991.41;1724926;81;21051;-56
2021/12/13 08:23:44;;;;;;;143.47;67.62;;;;;;;-6.45;84.41;98990.00;1735395;81;21425;-56
2021/12/13 08:26:16;;;;;;;138.72;72.53;;;;;;;-6.25;84.61;98995.48;1727101;82;21087;-57
2021/12/13 08:28:47;;;;;;;107.95;55.70;;;;;;;-6.16;84.49;98991.95;1750506;80;21162;-56
2021/12/13 08:31:28;;;;;;;97.35;42.00;;;;;;;-5.99;84.53;98990.30;1725827;82;21067;-57
2021/12/13 08:34:06;;;;;;;222.70;101.07;;;;;;;-5.98;83.88;98992.81;1728168;81;21111;-56
2021/12/13 08:36:40;;;;;;;331.17;142.62;;;;;;;-6.00;84.66;98997.88;1730004;81;21547;-57
2021/12/13 08:39:21;;;;;;;160.80;71.57;;;;;;;-5.85;84.99;99003.44;1733600;81;20931;-56
2021/12/13 08:41:56;;;;;;;163.72;82.53;;;;;;;-5.73;84.67;98999.08;1739303;81;21039;-56
2021/12/13 08:44:30;;;;;;;152.85;73.17;;;;;;;-5.63;84.53;99002.98;1726937;82;21011;-57
2021/12/13 08:47:06;;;;;;;153.10;65.40;;;;;;;-5.52;84.66;99005.37;1734458;82;21178;-56
2021/12/13 08:49:50;;;;;;;167.00;75.35;;;;;;;-5.40;84.48;99012.05;1737023;81;21045;-56
2021/12/13 08:52:30;;;;;;;195.60;85.42;;;;;;;-5.27;84.65;99002.91;1739036;81;21465;-55
2021/12/13 08:55:14;;;;;;;207.90;97.88;;;;;;;-5.08;84.33;99004.02;1751364;80;21088;-56
2021/12/13 08:57:55;;;;;;;139.55;70.45;;;;;;;-4.98;84.31;98999.94;1752746;80;21496;-56
2021/12/13 09:00:36;;;;;;;158.25;91.00;;;;;;;-4.94;83.98;98999.97;1745278;80;21102;-57
2021/12/13 09:03:34;;;;;;;150.65;80.12;;;;;;;-4.89;84.18;99001.14;1759811;80;21005;-56
2021/12/13 09:06:19;;;;;;;130.22;62.80;;;;;;;-4.75;84.36;99001.05;1728619;82;21005;-57
2021/12/13 09:09:13;;;;;;;103.78;54.42;;;;;;;-4.67;84.18;99001.59;1730724;81;21175;-57
2021/12/13 09:11:56;;;;;;;91.15;38.40;;;;;;;-4.59;84.22;98993.69;1728352;81;21036;-57
2021/12/13 09:14:39;;;;;;;75.17;39.13;;;;;;;-4.47;84.03;99002.15;1731198;81;21036;-57
2021/12/13 09:17:21;;;;;;;65.40;30.95;;;;;;;-4.34;84.29;98997.25;1757787;80;21049;-57
2021/12/13 09:20:10;;;;;;;111.40;61.63;;;;;;;-4.22;84.19;98991.97;1770227;79;21072;-58
2021/12/13 09:22:42;;;;;;;205.57;97.57;;;;;;;-4.22;84.00;98995.94;1759092;79;21024;-57
2021/12/13 09:25:34;;;;;;;211.12;95.90;;;;;;;-4.13;84.25;98996.79;1762051;80;20990;-56
2021/12/13 09:28:18;;;;;;;275.87;114.05;;;;;;;-4.02;84.27;98983.23;1768079;80;21374;-57
2021/12/13 09:31:05;;;;;;;136.57;58.65;;;;;;;-3.94;84.11;98984.56;1756806;80;21040;-56
2021/12/13 09:33:36;;;;;;;264.80;114.52;;;;;;;-3.83;84.58;98984.27;1768184;79;21406;-57
2021/12/13 09:36:11;;;;;;;80.17;38.98;;;;;;;-3.63;84.94;98983.94;1733030;80;21088;-57
2021/12/13 09:39:06;;;;;;;113.25;59.40;;;;;;;-3.53;84.68;98986.75;1718716;82;20958;-57
2021/12/13 09:41:42;;;;;;;64.42;30.97;;;;;;;-3.40;84.52;98987.58;1763297;80;21035;-56
2021/12/13 09:44:32;;;;;;;58.48;32.13;;;;;;;-3.27;84.35;98982.58;1694002;83;21104;-57
2021/12/13 09:47:16;;;;;;;59.00;29.90;;;;;;;-3.15;84.41;98981.75;1726305;81;21019;-57
2021/12/13 09:50:00;;;;;;;60.25;27.93;;;;;;;-3.06;84.06;98971.45;1741546;81;21103;-57
2021/12/13 09:52:37;;;;;;;176.63;63.30;;;;;;;-2.95;84.15;98964.95;1758404;80;20985;-56
2021/12/13 09:55:15;;;;;;;189.05;66.40;;;;;;;-2.85;83.97;98966.91;1753207;80;21488;-57
2021/12/13 09:57:59;;;;;;;190.45;71.55;;;;;;;-2.75;84.10;98951.61;1756505;79;21457;-57
2021/12/13 10:00:46;;;;;;;48.73;24.37;;;;;;;-2.62;84.26;98951.08;1762647;81;21147;-57
2021/12/13 10:03:21;;;;;;;92.30;38.92;;;;;;;-2.48;83.90;98954.80;1757076;80;20992;-57
2021/12/13 10:05:51;;;;;;;53.70;28.20;;;;;;;-2.40;84.01;98958.24;1742301;79;20985;-56
2021/12/13 10:08:32;;;;;;;114.42;48.92;;;;;;;-2.29;83.69;98954.39;1736986;80;20977;-57
2021/12/13 10:11:04;;;;;;;193.20;81.55;;;;;;;-2.36;82.15;98957.41;1716741;81;21024;-56
2021/12/13 10:13:36;;;;;;;132.25;59.35;;;;;;;-2.27;83.07;98959.02;1742489;80;21480;-57
2021/12/13 10:16:07;;;;;;;74.58;39.18;;;;;;;-2.16;82.84;98955.13;1732691;81;21602;-57
2021/12/13 10:18:39;;;;;;;86.12;42.65;;;;;;;-2.09;83.00;98956.09;1740892;80;21080;-56
2021/12/13 10:21:20;;;;;;;76.72;39.35;;;;;;;-1.99;83.26;98959.34;1737432;82;21599;-57
2021/12/13 10:23:52;;;;;;;100.22;48.58;;;;;;;-1.83;83.41;98957.06;1722412;81;20987;-57
2021/12/13 10:26:19;;;;;;;67.82;33.20;;;;;;;-1.76;83.27;98966.81;1734256;82;20986;-57
2021/12/13 10:28:58;;;;;;;145.32;59.85;;;;;;;-1.69;83.02;98965.60;1732507;80;21087;-57
2021/12/13 10:31:39;;;;;;;127.85;61.37;;;;;;;-1.55;83.46;98969.30;1734910;82;21532;-58
2021/12/13 10:34:11;;;;;;;84.52;46.58;;;;;;;-1.47;82.29;98967.90;1734230;81;21052;-57
2021/12/13 10:36:40;;;;;;;65.52;34.92;;;;;;;-1.48;81.36;98960.93;1737751;81;21020;-57
2021/12/13 10:39:12;;;;;;;73.60;39.53;;;;;;;-1.44;82.08;98962.24;1738892;81;21080;-57
2021/12/13 10:41:43;;;;;;;46.08;25.20;;;;;;;-1.37;82.49;98964.98;1741267;82;21191;-57
2021/12/13 10:44:14;;;;;;;53.87;26.73;;;;;;;-1.33;82.51;98954.33;1763081;80;21056;-57
2021/12/13 10:46:45;;;;;;;50.63;25.52;;;;;;;-1.34;82.44;98957.48;1743859;81;21563;-57
2021/12/13 10:49:17;;;;;;;48.02;26.90;;;;;;;-1.35;81.89;98953.19;1759169;80;21488;-57
2021/12/13 10:51:54;;;;;;;54.58;28.42;;;;;;;-1.25;82.55;98944.94;1741871;81;21087;-56
2021/12/13 10:54:18;;;;;;;41.35;23.65;;;;;;;-1.15;82.41;98948.16;1740296;80;21423;-57
2021/12/13 10:56:56;;;;;;;44.87;24.77;;;;;;;-1.07;82.10;98940.59;1755247;80;21138;-56
2021/12/13 10:59:25;;;;;;;53.65;27.32;;;;;;;-1.01;81.93;98943.86;1739104;81;21399;-57
2021/12/13 11:01:55;;;;;;;49.27;25.45;;;;;;;-0.96;81.56;98938.80;1759665;80;21504;-57
2021/12/13 11:04:32;;;;;;;41.20;22.37;;;;;;;-0.87;81.83;98935.86;1757520;79;21096;-57
2021/12/13 11:07:01;;;;;;;41.70;23.90;;;;;;;-0.81;81.76;98932.98;1767576;80;21616;-57
2021/12/13 11:09:28;;;;;;;40.58;22.58;;;;;;;-0.76;81.24;98933.77;1766497;80;21060;-57
2021/12/13 11:12:03;;;;;;;39.73;21.62;;;;;;;-0.66;81.83;98924.98;1758082;80;21068;-57
2021/12/13 11:14:33;;;;;;;52.30;29.02;;;;;;;-0.60;81.31;98934.87;1756954;79;21045;-58
2021/12/13 11:17:05;;;;;;;55.80;28.27;;;;;;;-0.43;82.45;98933.64;1750644;80;21086;-57
2021/12/13 11:19:35;;;;;;;53.08;28.00;;;;;;;-0.30;82.14;98939.14;1751524;80;21005;-57
2021/12/13 11:22:10;;;;;;;63.35;33.28;;;;;;;-0.17;82.64;98927.82;1757921;80;20962;-57
2021/12/13 11:24:40;;;;;;;62.88;30.27;;;;;;;-0.06;82.23;98931.82;1756519;79;21057;-58
2021/12/13 11:27:21;;;;;;;71.67;36.23;;;;;;;-0.04;81.96;98925.27;1758100;79;21402;-57
2021/12/13 11:29:49;;;;;;;60.95;31.33;;;;;;;0.03;82.25;98932.52;1740858;82;21474;-58
2021/12/13 11:32:59;;;;;;;58.42;31.02;;;;;;;0.04;81.36;98924.84;1751819;81;20996;-57
2021/12/13 11:35:56;;;;;;;71.90;34.92;;;;;;;0.08;81.29;98924.77;1757493;80;21052;-57
2021/12/13 11:39:00;;;;;;;79.22;38.45;;;;;;;0.16;81.69;98929.97;1683931;81;21477;-57
2021/12/13 11:42:11;;;;;;;71.45;35.92;;;;;;;0.27;81.84;98937.48;1756779;80;21160;-58
2021/12/13 11:45:27;;;;;;;70.55;38.25;;;;;;;0.37;82.01;98935.81;1770047;80;21028;-57
2021/12/13 11:48:08;;;;;;;81.25;42.15;;;;;;;0.45;81.63;98933.02;1757898;80;21541;-57
2021/12/13 11:51:14;;;;;;;81.05;41.88;;;;;;;0.50;81.70;98931.39;1706370;81;21039;-57
2021/12/13 11:54:14;;;;;;;84.20;43.08;;;;;;;0.54;81.37;98930.52;1756683;79;20989;-57
2021/12/13 11:57:12;;;;;;;79.47;40.30;;;;;;;0.57;81.58;98922.12;1679045;82;21397;-56
2021/12/13 12:00:01;;;;;;;82.10;41.02;;;;;;;0.62;81.60;98913.55;1742078;81;21036;-57
2021/12/13 12:03:07;;;;;;;87.62;45.23;;;;;;;0.68;81.43;98916.76;1753726;79;21673;-58
2021/12/13 12:06:09;;;;;;;85.53;41.90;;;;;;;0.75;81.30;98916.30;1755712;80;21049;-57
2021/12/13 12:09:06;;;;;;;76.60;39.53;;;;;;;0.81;81.44;98919.53;1777221;80;20993;-57